createdAt,value
2019-01-03T00:00:07.993Z,58.48
2019-01-03T00:02:58.871Z,58.67
2019-01-03T00:05:49.920Z,58.57
2019-01-03T00:08:38.160Z,58.61
2019-01-03T00:11:25.780Z,58.50
2019-01-03T00:14:14.112Z,58.36
2019-01-03T00:17:00.767Z,58.48
2019-01-03T00:19:50.301Z,58.65
2019-01-03T00:22:42.522Z,58.65
2019-01-03T00:25:30.572Z,58.90
2019-01-03T00:28:18.230Z,58.95
2019-01-03T00:31:06.200Z,59.29
2019-01-03T00:34:04.448Z,59.47
2019-01-03T00:36:52.600Z,59.66
2019-01-03T00:39:33.080Z,59.65
2019-01-03T00:42:21.766Z,59.56
2019-01-03T00:45:09.422Z,59.64
2019-01-03T00:48:00.734Z,59.41
2019-01-03T00:50:43.781Z,59.30
2019-01-03T00:53:41.890Z,59.48
2019-01-03T00:56:37.049Z,59.47
2019-01-03T00:59:27.071Z,59.34
2019-01-03T01:02:19.345Z,59.24
2019-01-03T01:05:21.071Z,59.08
2019-01-03T01:08:10.109Z,59.00
2019-01-03T01:10:58.027Z,59.01
2019-01-03T01:13:47.165Z,58.84
2019-01-03T01:16:35.137Z,58.75
2019-01-03T01:19:22.989Z,58.87
2019-01-03T01:22:24.340Z,58.82
2019-01-03T01:25:19.270Z,59.06
2019-01-03T01:28:08.395Z,59.05
2019-01-03T01:31:12.512Z,59.11
2019-01-03T01:34:06.690Z,59.03
2019-01-03T01:37:16.951Z,59.00
2019-01-03T01:39:57.303Z,59.13
2019-01-03T01:43:04.785Z,59.11
2019-01-03T01:46:06.981Z,59.32
2019-01-03T01:49:02.546Z,59.58
2019-01-03T01:51:58.644Z,59.52
2019-01-03T01:55:05.472Z,59.56
2019-01-03T01:57:53.453Z,59.49
2019-01-03T02:00:42.561Z,59.47
2019-01-03T02:03:53.908Z,59.25
2019-01-03T02:07:01.177Z,59.40
2019-01-03T02:09:48.779Z,59.38
2019-01-03T02:12:50.341Z,59.47
2019-01-03T02:15:40.680Z,59.51
2019-01-03T02:18:28.569Z,59.74
2019-01-03T02:21:16.875Z,59.67
2019-01-03T02:24:09.166Z,59.71
2019-01-03T02:27:11.224Z,59.75
2019-01-03T02:30:06.653Z,59.75
2019-01-03T02:32:56.160Z,59.77
2019-01-03T02:35:52.232Z,59.94
2019-01-03T02:38:44.573Z,60.07
2019-01-03T02:41:39.760Z,60.15
2019-01-03T02:44:41.758Z,60.30
2019-01-03T02:47:34.074Z,60.40
2019-01-03T02:50:29.764Z,60.46
2019-01-03T02:53:17.468Z,60.58
2019-01-03T02:56:15.959Z,60.58
2019-01-03T02:59:08.082Z,60.53
2019-01-03T03:01:56.219Z,60.47
2019-01-03T03:04:55.380Z,60.48
2019-01-03T03:07:50.437Z,60.66
2019-01-03T03:10:48.579Z,60.66
2019-01-03T03:13:37.952Z,60.79
2019-01-03T03:16:25.877Z,60.92
2019-01-03T03:19:24.207Z,60.92
2019-01-03T03:22:16.120Z,61.04
2019-01-03T03:25:03.941Z,61.02
2019-01-03T03:27:53.105Z,60.99
2019-01-03T03:31:00.384Z,61.02
2019-01-03T03:33:58.318Z,61.05
2019-01-03T03:36:50.543Z,61.12
2019-01-03T03:39:34.297Z,61.07
2019-01-03T03:42:31.602Z,61.42
2019-01-03T03:45:19.807Z,61.42
2019-01-03T03:48:08.225Z,61.58
2019-01-03T03:51:01.468Z,61.69
2019-01-03T03:53:56.924Z,61.73
2019-01-03T03:56:44.786Z,61.95
2019-01-03T03:59:32.839Z,62.12
2019-01-03T04:02:20.485Z,62.05
2019-01-03T04:05:09.886Z,62.08
2019-01-03T04:07:58.965Z,62.18
2019-01-03T04:11:01.868Z,62.41
2019-01-03T04:13:50.775Z,62.69
2019-01-03T04:16:52.280Z,62.78
2019-01-03T04:19:40.194Z,63.07
2019-01-03T04:22:29.508Z,63.10
2019-01-03T04:25:24.730Z,63.07
2019-01-03T04:28:12.246Z,63.07
2019-01-03T04:31:13.111Z,63.03
2019-01-03T04:34:14.309Z,63.03
2019-01-03T04:37:09.640Z,63.13
2019-01-03T04:40:06.467Z,63.22
2019-01-03T04:43:06.142Z,63.24
2019-01-03T04:46:05.089Z,63.24
2019-01-03T04:48:54.085Z,63.26
2019-01-03T04:51:58.137Z,63.17
2019-01-03T04:55:02.449Z,63.15
2019-01-03T04:57:49.797Z,63.02
2019-01-03T05:00:45.339Z,63.06
2019-01-03T05:03:43.387Z,62.99
2019-01-03T05:06:35.469Z,62.98
2019-01-03T05:09:35.935Z,63.03
2019-01-03T05:12:18.021Z,62.82
2019-01-03T05:15:05.593Z,62.74
2019-01-03T05:17:53.221Z,62.83
2019-01-03T05:20:41.932Z,63.02
2019-01-03T05:23:37.133Z,63.02
2019-01-03T05:26:26.537Z,63.16
2019-01-03T05:29:15.829Z,63.22
2019-01-03T05:32:03.434Z,63.06
2019-01-03T05:35:07.753Z,63.14
2019-01-03T05:38:08.796Z,63.26
2019-01-03T05:40:56.826Z,63.28
2019-01-03T05:43:49.068Z,63.22
2019-01-03T05:46:41.415Z,63.06
2019-01-03T05:49:29.023Z,63.04
2019-01-03T05:52:19.588Z,63.17
2019-01-03T05:55:07.041Z,63.15
2019-01-03T05:57:54.472Z,63.29
2019-01-03T06:00:42.078Z,63.39
2019-01-03T06:03:36.847Z,63.51
2019-01-03T06:06:37.848Z,63.59
2019-01-03T06:09:23.963Z,63.63
2019-01-03T06:12:11.634Z,63.74
2019-01-03T06:14:59.461Z,63.90
2019-01-03T06:17:51.279Z,63.75
2019-01-03T06:20:39.315Z,63.76
2019-01-03T06:23:29.803Z,63.87
2019-01-03T06:26:18.852Z,63.90
2019-01-03T06:29:08.062Z,63.95
2019-01-03T06:32:06.091Z,64.03
2019-01-03T06:34:54.868Z,64.06
2019-01-03T06:37:39.795Z,64.13
2019-01-03T06:40:47.160Z,64.17
2019-01-03T06:43:34.790Z,64.32
2019-01-03T06:46:23.889Z,64.64
2019-01-03T06:49:11.738Z,64.70
2019-01-03T06:52:00.936Z,64.75
2019-01-03T06:54:53.541Z,64.81
2019-01-03T06:57:40.937Z,64.76
2019-01-03T07:00:36.164Z,64.81
2019-01-03T07:03:23.752Z,64.93
2019-01-03T07:06:27.871Z,65.00
2019-01-03T07:09:28.238Z,65.03
2019-01-03T07:12:20.514Z,65.09
2019-01-03T07:15:10.958Z,65.25
2019-01-03T07:18:03.128Z,65.40
2019-01-03T07:20:54.952Z,65.48
2019-01-03T07:23:42.570Z,65.49
2019-01-03T07:26:30.358Z,65.48
2019-01-03T07:29:25.786Z,65.69
2019-01-03T07:32:14.804Z,65.55
2019-01-03T07:35:03.868Z,65.69
2019-01-03T07:38:04.963Z,65.70
2019-01-03T07:40:54.191Z,65.66
2019-01-03T07:43:41.894Z,65.48
2019-01-03T07:46:39.903Z,65.44
2019-01-03T07:49:41.527Z,65.38
2019-01-03T07:52:29.554Z,65.36
2019-01-03T07:55:24.888Z,65.38
2019-01-03T07:58:28.996Z,65.33
2019-01-03T08:01:39.099Z,65.32
2019-01-03T08:04:18.418Z,65.37
2019-01-03T08:07:16.273Z,65.35
2019-01-03T08:10:04.445Z,65.26
2019-01-03T08:13:07.917Z,65.23
2019-01-03T08:15:56.174Z,65.44
2019-01-03T08:18:45.758Z,65.32
2019-01-03T08:21:31.508Z,65.39
2019-01-03T08:24:23.681Z,65.47
2019-01-03T08:27:11.879Z,65.46
2019-01-03T08:29:55.611Z,65.53
2019-01-03T08:32:44.924Z,65.56
2019-01-03T08:35:40.011Z,65.45
2019-01-03T08:38:31.670Z,65.54
2019-01-03T08:41:24.986Z,65.45
2019-01-03T08:44:12.712Z,65.23
2019-01-03T08:47:16.853Z,64.99
2019-01-03T08:50:06.581Z,64.65
2019-01-03T08:52:54.349Z,64.37
2019-01-03T08:55:45.331Z,64.06
2019-01-03T08:58:37.996Z,63.92
2019-01-03T09:01:26.904Z,63.63
2019-01-03T09:04:14.657Z,63.67
2019-01-03T09:07:10.075Z,63.58
2019-01-03T09:10:15.037Z,63.46
2019-01-03T09:13:05.330Z,63.19
2019-01-03T09:15:57.669Z,63.11
2019-01-03T09:18:50.112Z,63.07
2019-01-03T09:21:49.597Z,62.82
2019-01-03T09:24:39.339Z,62.62
2019-01-03T09:27:28.369Z,62.38
2019-01-03T09:30:30.387Z,62.19
2019-01-03T09:33:35.313Z,62.07
2019-01-03T09:36:29.943Z,62.01
2019-01-03T09:39:17.960Z,62.10
2019-01-03T09:42:20.260Z,62.03
2019-01-03T09:44:51.724Z,61.96
2019-01-03T09:47:22.541Z,61.88
2019-01-03T09:49:55.722Z,61.83
2019-01-03T09:52:27.697Z,61.60
2019-01-03T09:54:59.226Z,61.49
2019-01-03T09:57:29.615Z,61.39
2019-01-03T10:00:01.019Z,61.24
2019-01-03T10:02:32.375Z,61.18
2019-01-03T10:05:07.983Z,60.82
2019-01-03T10:07:39.774Z,60.83
2019-01-03T10:10:11.406Z,60.71
2019-01-03T10:12:44.362Z,60.60
2019-01-03T10:15:15.335Z,60.48
2019-01-03T10:17:46.924Z,60.56
2019-01-03T10:20:19.177Z,60.46
2019-01-03T10:22:49.332Z,60.55
2019-01-03T10:25:19.635Z,60.46
2019-01-03T10:27:50.777Z,60.35
2019-01-03T10:30:21.165Z,60.32
2019-01-03T10:32:52.978Z,60.09
2019-01-03T10:35:26.085Z,59.99
2019-01-03T10:37:59.652Z,59.74
2019-01-03T10:40:32.626Z,59.41
2019-01-03T10:43:03.202Z,59.28
2019-01-03T10:45:36.105Z,59.27
2019-01-03T10:48:11.711Z,59.47
2019-01-03T10:50:42.836Z,59.55
2019-01-03T10:53:13.209Z,59.75
2019-01-03T10:55:48.959Z,59.90
2019-01-03T10:58:19.838Z,60.00
2019-01-03T11:00:55.201Z,60.40
2019-01-03T11:03:25.931Z,60.43
2019-01-03T11:05:57.207Z,60.65
2019-01-03T11:08:30.023Z,60.73
2019-01-03T11:11:04.648Z,60.76
2019-01-03T11:13:35.068Z,60.77
2019-01-03T11:16:05.483Z,60.47
2019-01-03T11:18:35.944Z,60.39
2019-01-03T11:21:09.677Z,60.39
2019-01-03T11:23:41.096Z,60.33
2019-01-03T11:26:17.795Z,60.20
2019-01-03T11:28:49.541Z,60.11
2019-01-03T11:31:20.282Z,60.12
2019-01-03T11:33:51.452Z,59.97
2019-01-03T11:36:25.739Z,59.90
2019-01-03T11:38:58.026Z,60.56
2019-01-03T11:41:29.233Z,61.81
2019-01-03T11:44:03.830Z,63.20
2019-01-03T11:46:35.051Z,63.93
2019-01-03T11:49:05.965Z,64.38
2019-01-03T11:51:36.344Z,64.84
2019-01-03T11:54:06.885Z,65.60
2019-01-03T11:56:37.868Z,65.52
2019-01-03T11:59:08.765Z,66.04
2019-01-03T12:01:39.001Z,66.01
2019-01-03T12:04:09.558Z,65.97
2019-01-03T12:06:40.019Z,65.78
2019-01-03T12:09:10.755Z,65.47
2019-01-03T12:11:41.252Z,65.70
2019-01-03T12:14:12.479Z,65.70
2019-01-03T12:16:42.846Z,65.52
2019-01-03T12:19:13.509Z,65.29
2019-01-03T12:21:45.528Z,65.07
2019-01-03T12:24:16.225Z,65.25
2019-01-03T12:26:46.569Z,65.61
2019-01-03T12:29:19.633Z,66.12
2019-01-03T12:31:53.248Z,66.12
2019-01-03T12:34:24.233Z,66.26
2019-01-03T12:36:56.233Z,66.12
2019-01-03T12:39:27.141Z,66.26
2019-01-03T12:41:59.542Z,66.46
2019-01-03T12:44:30.995Z,66.42
2019-01-03T12:47:01.525Z,66.09
2019-01-03T12:49:35.378Z,65.80
2019-01-03T12:52:07.352Z,66.00
2019-01-03T12:54:37.974Z,65.75
2019-01-03T12:57:14.694Z,65.30
2019-01-03T12:59:57.493Z,65.11
2019-01-03T13:02:27.766Z,64.77
2019-01-03T13:05:04.933Z,64.65
2019-01-03T13:07:39.423Z,64.46
2019-01-03T13:10:13.005Z,64.19
2019-01-03T13:12:43.576Z,64.07
2019-01-03T13:15:18.322Z,63.39
2019-01-03T13:17:49.771Z,63.03
2019-01-03T13:20:22.865Z,62.57
2019-01-03T13:22:54.986Z,62.45
2019-01-03T13:25:27.179Z,62.24
2019-01-03T13:28:01.800Z,62.16
2019-01-03T13:30:33.321Z,62.10
2019-01-03T13:33:04.125Z,62.09
2019-01-03T13:35:48.245Z,61.87
2019-01-03T13:38:21.211Z,61.75
2019-01-03T13:40:52.398Z,61.70
2019-01-03T13:43:23.276Z,61.77
2019-01-03T13:45:56.022Z,61.93
2019-01-03T13:48:28.827Z,62.01
2019-01-03T13:51:03.274Z,61.93
2019-01-03T13:53:33.665Z,61.82
2019-01-03T13:56:05.853Z,61.92
2019-01-03T13:58:36.395Z,62.17
2019-01-03T14:01:08.658Z,62.39
2019-01-03T14:03:39.507Z,62.44
2019-01-03T14:06:09.804Z,62.74
2019-01-03T14:08:40.216Z,62.80
2019-01-03T14:11:11.557Z,62.83
2019-01-03T14:13:43.103Z,62.79
2019-01-03T14:16:15.491Z,62.79
2019-01-03T14:18:46.381Z,63.03
2019-01-03T14:21:16.874Z,62.98
2019-01-03T14:23:47.066Z,63.20
2019-01-03T14:26:22.941Z,63.15
2019-01-03T14:28:54.004Z,63.25
2019-01-03T14:31:28.414Z,63.15
2019-01-03T14:34:00.778Z,63.25
2019-01-03T14:36:38.493Z,63.23
2019-01-03T14:39:09.653Z,63.03
2019-01-03T14:41:40.726Z,62.93
2019-01-03T14:44:13.266Z,62.82
2019-01-03T14:46:44.609Z,62.74
2019-01-03T14:49:19.442Z,62.76
2019-01-03T14:51:50.535Z,62.75
2019-01-03T14:54:20.957Z,63.02
2019-01-03T14:56:51.642Z,62.89
2019-01-03T14:59:22.016Z,63.06
2019-01-03T15:01:52.510Z,63.36
2019-01-03T15:04:22.812Z,63.41
2019-01-03T15:06:53.096Z,63.58
2019-01-03T15:09:27.472Z,63.48
2019-01-03T15:11:58.346Z,63.54
2019-01-03T15:14:28.891Z,63.53
2019-01-03T15:16:59.168Z,63.63
2019-01-03T15:19:29.321Z,63.84
2019-01-03T15:22:01.893Z,63.96
2019-01-03T15:24:32.029Z,64.05
2019-01-03T15:27:02.552Z,64.13
2019-01-03T15:29:33.302Z,64.40
2019-01-03T15:32:04.217Z,64.58
2019-01-03T15:34:34.891Z,64.73
2019-01-03T15:37:05.096Z,64.87
2019-01-03T15:39:35.820Z,65.04
2019-01-03T15:42:12.996Z,65.14
2019-01-03T15:44:43.277Z,65.22
2019-01-03T15:47:13.808Z,65.46
2019-01-03T15:49:44.300Z,65.59
2019-01-03T15:52:14.831Z,65.54
2019-01-03T15:54:45.409Z,65.68
2019-01-03T15:57:17.334Z,66.00
2019-01-03T15:59:48.039Z,66.30
2019-01-03T16:02:19.162Z,66.37
2019-01-03T16:04:50.535Z,66.55
2019-01-03T16:07:26.643Z,66.67
2019-01-03T16:09:59.313Z,66.58
2019-01-03T16:12:29.935Z,66.70
2019-01-03T16:15:00.341Z,66.83
2019-01-03T16:17:30.928Z,66.80
2019-01-03T16:20:01.408Z,66.89
2019-01-03T16:22:34.421Z,67.19
2019-01-03T16:25:06.589Z,67.54
2019-01-03T16:27:37.553Z,67.67
2019-01-03T16:30:09.753Z,67.62
2019-01-03T16:32:41.380Z,67.78
2019-01-03T16:35:12.065Z,67.94
2019-01-03T16:37:42.669Z,68.15
2019-01-03T16:40:13.721Z,68.35
2019-01-03T16:42:46.153Z,68.64
2019-01-03T16:45:17.547Z,68.77
2019-01-03T16:47:47.949Z,68.78
2019-01-03T16:50:19.414Z,68.78
2019-01-03T16:52:51.293Z,68.91
2019-01-03T16:55:22.037Z,69.08
2019-01-03T16:57:53.671Z,69.25
2019-01-03T17:00:23.928Z,69.41
2019-01-03T17:02:54.483Z,69.53
2019-01-03T17:05:26.134Z,69.59
2019-01-03T17:07:56.957Z,69.66
2019-01-03T17:10:28.070Z,69.65
2019-01-03T17:12:58.659Z,69.50
2019-01-03T17:15:43.322Z,69.33
2019-01-03T17:18:13.579Z,69.33
2019-01-03T17:20:48.175Z,69.32
2019-01-03T17:23:18.917Z,69.25
2019-01-03T17:25:49.897Z,69.22
2019-01-03T17:28:20.513Z,69.18
2019-01-03T17:30:51.189Z,69.08
2019-01-03T17:33:22.679Z,68.93
2019-01-03T17:35:56.009Z,68.73
2019-01-03T17:38:29.290Z,68.49
2019-01-03T17:40:59.734Z,68.41
2019-01-03T17:43:30.138Z,68.30
2019-01-03T17:46:06.087Z,68.12
2019-01-03T17:48:36.657Z,67.93
2019-01-03T17:51:07.432Z,67.72
2019-01-03T17:53:37.661Z,67.62
2019-01-03T17:56:09.740Z,67.50
2019-01-03T17:58:40.990Z,67.32
2019-01-03T18:01:12.551Z,67.30
2019-01-03T18:03:47.765Z,67.20
2019-01-03T18:06:21.356Z,67.23
2019-01-03T18:08:55.391Z,67.16
2019-01-03T18:11:27.364Z,67.18
2019-01-03T18:13:57.794Z,67.23
2019-01-03T18:16:32.937Z,67.19
2019-01-03T18:19:03.365Z,67.16
2019-01-03T18:21:34.705Z,67.16
2019-01-03T18:24:05.534Z,67.21
2019-01-03T18:26:36.269Z,67.43
2019-01-03T18:29:07.128Z,67.64
2019-01-03T18:31:38.000Z,67.79
2019-01-03T18:34:15.424Z,67.79
2019-01-03T18:36:46.245Z,67.77
2019-01-03T18:39:16.804Z,67.76
2019-01-03T18:41:47.287Z,68.06
2019-01-03T18:44:18.466Z,68.17
2019-01-03T18:46:48.958Z,68.38
2019-01-03T18:49:23.199Z,68.54
2019-01-03T18:51:53.980Z,68.59
2019-01-03T18:54:29.640Z,68.58
2019-01-03T18:57:00.284Z,68.63
2019-01-03T18:59:31.271Z,68.65
2019-01-03T19:02:01.850Z,68.70
2019-01-03T19:04:34.585Z,68.64
2019-01-03T19:07:07.192Z,68.75
2019-01-03T19:09:38.272Z,68.77
2019-01-03T19:12:09.689Z,68.97
2019-01-03T19:14:40.726Z,69.02
2019-01-03T19:17:11.144Z,69.08
2019-01-03T19:19:41.446Z,69.14
2019-01-03T19:22:11.988Z,69.27
2019-01-03T19:24:42.208Z,69.27
2019-01-03T19:27:13.774Z,69.33
2019-01-03T19:29:44.580Z,69.41
2019-01-03T19:32:15.504Z,69.46
2019-01-03T19:34:45.942Z,69.61
2019-01-03T19:37:16.509Z,69.74
2019-01-03T19:39:50.761Z,69.86
2019-01-03T19:42:21.615Z,70.01
2019-01-03T19:44:53.346Z,70.15
2019-01-03T19:47:26.574Z,70.07
2019-01-03T19:50:01.084Z,70.25
2019-01-03T19:52:36.515Z,70.23
2019-01-03T19:55:08.219Z,70.28
2019-01-03T19:57:41.924Z,70.17
2019-01-03T20:00:17.369Z,70.08
2019-01-03T20:02:49.815Z,70.05
2019-01-03T20:05:22.302Z,69.90
2019-01-03T20:07:53.570Z,69.78
2019-01-03T20:10:24.285Z,69.79
2019-01-03T20:12:55.268Z,69.75
2019-01-03T20:15:26.847Z,69.77
2019-01-03T20:17:59.069Z,69.78
2019-01-03T20:20:34.006Z,69.78
2019-01-03T20:23:05.568Z,69.61
2019-01-03T20:25:39.021Z,69.59
2019-01-03T20:28:17.211Z,69.62
2019-01-03T20:30:48.877Z,69.59
2019-01-03T20:33:22.453Z,69.77
2019-01-03T20:36:04.597Z,69.98
2019-01-03T20:38:35.057Z,70.10
2019-01-03T20:41:08.256Z,70.18
2019-01-03T20:43:39.407Z,70.08
2019-01-03T20:46:10.699Z,70.01
2019-01-03T20:48:42.094Z,70.01
2019-01-03T20:51:13.490Z,70.17
2019-01-03T20:53:44.778Z,70.38
2019-01-03T20:56:19.906Z,70.45
2019-01-03T20:58:57.258Z,70.57
2019-01-03T21:01:28.128Z,70.58
2019-01-03T21:04:00.062Z,70.56
2019-01-03T21:06:31.265Z,70.82
2019-01-03T21:09:02.648Z,70.72
2019-01-03T21:11:34.700Z,70.65
2019-01-03T21:14:05.371Z,70.74
2019-01-03T21:16:35.927Z,71.04
2019-01-03T21:19:06.633Z,71.17
2019-01-03T21:21:39.889Z,71.47
2019-01-03T21:24:14.595Z,71.64
2019-01-03T21:26:48.848Z,71.69
2019-01-03T21:29:21.363Z,71.80
2019-01-03T21:31:56.529Z,71.87
2019-01-03T21:37:00.474Z,72.16
2019-01-03T21:39:31.239Z,72.11
2019-01-03T21:42:01.596Z,71.96
2019-01-03T21:44:33.508Z,72.21
2019-01-03T21:47:06.105Z,72.33
2019-01-03T21:49:37.411Z,72.47
2019-01-03T21:52:39.433Z,72.63
2019-01-03T21:56:19.423Z,72.67
2019-01-03T21:59:07.166Z,72.49
2019-01-03T22:01:52.681Z,72.33
2019-01-03T22:04:39.056Z,72.16
2019-01-03T22:07:08.726Z,72.09
2019-01-03T22:09:37.125Z,71.83
2019-01-03T22:12:05.314Z,71.52
2019-01-03T22:14:33.898Z,71.41
2019-01-03T22:17:02.205Z,71.26
2019-01-03T22:19:30.414Z,71.20
2019-01-03T22:21:59.481Z,71.09
2019-01-03T22:24:28.735Z,71.01
2019-01-03T22:26:57.128Z,70.86
2019-01-03T22:29:25.736Z,70.85
2019-01-03T22:31:54.235Z,70.83
2019-01-03T22:34:26.497Z,70.61
2019-01-03T22:36:55.210Z,70.41
2019-01-03T22:39:23.255Z,70.25
2019-01-03T22:41:53.179Z,70.31
2019-01-03T22:44:21.910Z,70.13
2019-01-03T22:46:50.732Z,69.85
2019-01-03T22:49:19.397Z,69.80
2019-01-03T22:51:49.155Z,69.77
2019-01-03T22:54:17.548Z,69.79
2019-01-03T22:56:45.903Z,69.58
2019-01-03T22:59:14.865Z,69.38
2019-01-03T23:01:43.429Z,69.24
2019-01-03T23:04:13.588Z,69.12
2019-01-03T23:06:42.508Z,69.10
2019-01-03T23:09:10.526Z,68.92
2019-01-03T23:11:38.781Z,68.78
2019-01-03T23:14:07.352Z,68.70
2019-01-03T23:16:35.824Z,68.59
2019-01-03T23:19:04.181Z,68.43
2019-01-03T23:21:32.707Z,68.26
2019-01-03T23:24:01.174Z,68.02
2019-01-03T23:26:29.246Z,68.01
2019-01-03T23:28:57.547Z,67.86
2019-01-03T23:31:26.764Z,67.68
2019-01-03T23:33:55.122Z,67.56
2019-01-03T23:36:23.347Z,67.41
2019-01-03T23:38:51.805Z,67.32
2019-01-03T23:41:19.883Z,67.17
2019-01-03T23:43:47.940Z,67.26
2019-01-03T23:46:16.458Z,67.24
2019-01-03T23:48:44.974Z,67.19
2019-01-03T23:51:13.467Z,67.18
2019-01-03T23:53:42.309Z,67.10
2019-01-03T23:56:10.555Z,67.18
2019-01-03T23:58:38.955Z,67.19
